Time;durP1;ratioP1;P1;durP2;ratioP2;P2;SDS_P1;SDS_P2;PMS_P1;PMS_P2;Temp;Humidity;BMP_temperature;BMP_pressure;BME280_temperature;BME280_humidity;BME280_pressure;Samples;Min_cycle;Max_cycle;Signal;HPM_P1;HPM_P2
2022/03/18 00:01:56;;;;;;;43.35;17.50;;;;;;;3.79;48.90;101166.09;8411957;28;20041;-71
2022/03/18 00:05:57;;;;;;;44.40;18.65;;;;;;;3.74;48.98;101168.59;8435235;28;20475;-69
2022/03/18 00:09:58;;;;;;;47.85;18.92;;;;;;;3.72;48.96;101170.63;8411549;28;20051;-70
2022/03/18 00:14:02;;;;;;;51.10;18.10;;;;;;;3.63;49.13;101171.91;8430839;28;20036;-69
2022/03/18 00:18:03;;;;;;;51.25;19.60;;;;;;;3.61;49.29;101171.31;8417682;28;20064;-70
2022/03/18 00:22:05;;;;;;;52.80;19.10;;;;;;;3.61;49.45;101179.31;8434503;28;20047;-69
2022/03/18 00:26:07;;;;;;;50.95;19.20;;;;;;;3.58;49.42;101174.41;8465978;27;20566;-70
2022/03/18 00:30:09;;;;;;;44.90;18.08;;;;;;;3.59;49.45;101181.41;8470512;27;20040;-70
2022/03/18 00:34:10;;;;;;;51.58;19.50;;;;;;;3.52;49.58;101177.94;8466282;27;20043;-69
2022/03/18 00:38:11;;;;;;;52.40;19.52;;;;;;;3.48;49.81;101179.41;8460244;27;20517;-71
2022/03/18 00:42:12;;;;;;;53.67;18.80;;;;;;;3.46;49.88;101181.44;8454350;27;20056;-69
2022/03/18 00:46:13;;;;;;;51.17;19.48;;;;;;;3.45;49.59;101174.47;8446153;27;20521;-69
2022/03/18 00:54:39;;;;;;;55.33;19.52;;;;;;;3.32;49.87;101179.88;8473549;27;20079;-69
2022/03/18 00:58:43;;;;;;;49.42;19.77;;;;;;;3.26;50.22;101180.69;8480182;27;20059;-70
2022/03/18 01:02:44;;;;;;;42.42;18.23;;;;;;;3.25;50.11;101173.72;8457431;27;20125;-70
2022/03/18 01:06:46;;;;;;;52.92;19.55;;;;;;;3.24;50.05;101174.72;8442527;28;20568;-71
2022/03/18 01:10:47;;;;;;;50.53;18.38;;;;;;;3.25;50.16;101179.06;8461021;27;20122;-69
2022/03/18 01:14:48;;;;;;;54.50;19.10;;;;;;;3.20;49.98;101186.88;8443020;27;20035;-70
2022/03/18 01:18:49;;;;;;;46.47;18.13;;;;;;;3.24;49.52;101190.75;8441139;28;20126;-70
2022/03/18 01:22:51;;;;;;;48.47;17.17;;;;;;;3.28;48.30;101191.97;8451153;28;20063;-70
2022/03/18 01:26:52;;;;;;;48.70;18.48;;;;;;;3.21;48.62;101191.19;8447490;28;20550;-70
2022/03/18 01:30:54;;;;;;;44.25;16.88;;;;;;;3.14;48.61;101191.19;8438695;28;20096;-70
2022/03/18 01:34:54;;;;;;;52.33;17.48;;;;;;;3.08;48.58;101193.88;8457205;28;20043;-69
2022/03/18 01:38:56;;;;;;;46.10;17.40;;;;;;;3.01;48.47;101198.44;8465126;27;20104;-70
2022/03/18 01:42:57;;;;;;;42.17;15.88;;;;;;;2.97;48.52;101204.16;8438397;28;20411;-68
2022/03/18 01:46:58;;;;;;;44.08;16.77;;;;;;;2.98;47.99;101200.47;8436321;28;20051;-70
2022/03/18 01:50:59;;;;;;;37.42;15.05;;;;;;;2.93;47.97;101208.28;8435595;28;20079;-70
2022/03/18 01:55:01;;;;;;;43.30;16.30;;;;;;;2.88;48.20;101216.09;8462808;27;20051;-71
2022/03/18 01:59:02;;;;;;;40.58;16.52;;;;;;;2.78;48.24;101218.38;8459770;28;20051;-70
2022/03/18 02:03:03;;;;;;;46.90;16.33;;;;;;;2.77;48.01;101219.38;8450295;28;20143;-70
2022/03/18 02:07:05;;;;;;;40.03;15.93;;;;;;;2.59;48.80;101216.53;8452987;28;20047;-70
2022/03/18 02:11:07;;;;;;;39.22;15.93;;;;;;;2.53;49.10;101228.84;8465670;28;20460;-70
2022/03/18 02:15:09;;;;;;;44.50;15.95;;;;;;;2.49;48.71;101232.09;8459287;28;20050;-70
2022/03/18 02:19:10;;;;;;;39.17;16.02;;;;;;;2.43;48.78;101222.28;8396462;28;20048;-70
2022/03/18 02:23:11;;;;;;;39.58;16.13;;;;;;;2.37;48.87;101231.06;8445110;28;20067;-69
2022/03/18 02:27:13;;;;;;;38.38;15.40;;;;;;;2.22;49.02;101225.91;8442587;28;20044;-69
2022/03/18 02:31:14;;;;;;;46.45;16.48;;;;;;;2.23;49.13;101237.38;8468291;28;20051;-68
2022/03/18 02:35:15;;;;;;;38.85;15.70;;;;;;;2.19;48.90;101230.81;8441940;28;20406;-68
2022/03/18 02:39:18;;;;;;;35.08;14.45;;;;;;;2.15;49.16;101234.94;8464650;28;20040;-69
2022/03/18 02:43:19;;;;;;;45.72;15.20;;;;;;;2.07;48.96;101228.75;8463184;28;20412;-70
2022/03/18 02:47:20;;;;;;;41.08;15.90;;;;;;;2.06;49.01;101237.75;8457249;28;20127;-69
2022/03/18 02:51:21;;;;;;;41.30;15.18;;;;;;;1.99;49.43;101236.94;8438506;28;20044;-70
2022/03/18 02:55:22;;;;;;;38.15;15.60;;;;;;;1.90;50.13;101238.16;8455764;28;20403;-70
2022/03/18 02:59:24;;;;;;;41.92;16.55;;;;;;;1.79;50.04;101246.72;8463778;28;20047;-69
2022/03/18 03:03:25;;;;;;;42.42;16.42;;;;;;;1.81;49.89;101247.31;8451909;28;20051;-69
2022/03/18 03:11:47;;;;;;;42.70;15.27;;;;;;;1.63;50.59;101257.72;8445372;28;20047;-69
2022/03/18 03:15:48;;;;;;;44.95;15.10;;;;;;;1.57;50.77;101258.50;8450313;28;20127;-69
2022/03/18 03:19:49;;;;;;;44.58;16.40;;;;;;;1.53;50.74;101268.72;8462027;28;20051;-69
2022/03/18 03:23:50;;;;;;;42.25;15.20;;;;;;;1.48;51.06;101259.69;8449460;28;20051;-69
2022/03/18 03:27:52;;;;;;;43.40;16.02;;;;;;;1.45;51.17;101270.72;8448180;28;20060;-69
2022/03/18 03:31:53;;;;;;;44.50;15.98;;;;;;;1.41;51.32;101272.13;8450438;28;20051;-68
2022/03/18 03:35:54;;;;;;;41.33;16.15;;;;;;;1.33;51.55;101277.59;8446868;28;20135;-70
2022/03/18 03:39:55;;;;;;;43.85;15.85;;;;;;;1.27;51.95;101285.34;8454605;28;20131;-69
2022/03/18 03:43:56;;;;;;;46.17;16.13;;;;;;;1.23;51.61;101278.78;8462638;28;20077;-69
2022/03/18 03:47:57;;;;;;;44.70;16.02;;;;;;;1.23;51.61;101284.09;8453470;28;20043;-70
2022/03/18 03:51:58;;;;;;;40.35;15.38;;;;;;;1.23;51.82;101286.75;8457541;27;20039;-69
2022/03/18 03:55:59;;;;;;;35.88;14.38;;;;;;;1.26;51.43;101289.06;8462296;28;20047;-70
2022/03/18 04:00:00;;;;;;;48.08;16.20;;;;;;;1.20;51.34;101289.81;8461945;28;20048;-69
2022/03/18 04:04:04;;;;;;;40.15;15.57;;;;;;;1.12;51.56;101297.94;8453741;27;20113;-71
2022/03/18 04:08:05;;;;;;;38.45;15.07;;;;;;;1.12;51.65;101303.25;8440819;28;20467;-70
2022/03/18 04:12:06;;;;;;;40.90;15.15;;;;;;;1.11;51.48;101306.94;8397866;28;20048;-68
2022/03/18 04:16:07;;;;;;;44.25;16.23;;;;;;;1.05;52.03;101307.72;8458818;28;20044;-68
2022/03/18 04:20:10;;;;;;;45.95;15.38;;;;;;;1.02;51.74;101308.09;8444366;27;20048;-70
2022/03/18 04:24:11;;;;;;;43.03;15.90;;;;;;;1.02;51.75;101317.91;8449959;28;20052;-70
2022/03/18 04:28:12;;;;;;;38.97;16.02;;;;;;;0.99;52.07;101318.31;8454724;27;20054;-70
2022/03/18 04:32:13;;;;;;;43.03;16.33;;;;;;;0.94;52.40;101320.72;8455132;28;20402;-68
2022/03/18 04:36:14;;;;;;;41.83;16.08;;;;;;;0.91;52.23;101316.59;8459358;27;20051;-69
2022/03/18 04:40:15;;;;;;;40.10;15.75;;;;;;;0.84;52.59;101331.69;8458566;27;20100;-70
2022/03/18 04:44:16;;;;;;;39.92;15.52;;;;;;;0.81;53.03;101334.72;8460191;28;20043;-71
2022/03/18 04:48:17;;;;;;;44.85;15.73;;;;;;;0.76;52.64;101334.47;8458373;28;20490;-70
2022/03/18 04:52:18;;;;;;;44.13;15.88;;;;;;;0.78;52.77;101332.44;8464305;27;20027;-70
2022/03/18 05:00:38;;;;;;;37.58;15.90;;;;;;;0.78;52.91;101353.72;8444821;28;20056;-68
2022/03/18 05:04:41;;;;;;;40.25;15.27;;;;;;;0.86;52.95;101366.88;8460860;28;20131;-68
2022/03/18 05:08:42;;;;;;;43.67;15.73;;;;;;;0.79;53.00;101366.03;8463869;27;20047;-70
2022/03/18 05:12:44;;;;;;;43.13;14.90;;;;;;;0.83;53.04;101372.59;8475942;27;20069;-70
2022/03/18 05:16:45;;;;;;;41.15;15.73;;;;;;;0.83;53.09;101367.28;8460776;28;20468;-69
2022/03/18 05:20:46;;;;;;;37.38;15.55;;;;;;;0.89;53.01;101369.19;8461186;28;20048;-71
2022/03/18 05:24:47;;;;;;;38.40;15.52;;;;;;;0.89;52.60;101371.03;8428514;28;20419;-70
2022/03/18 05:28:48;;;;;;;38.85;15.93;;;;;;;0.89;52.75;101366.53;8407777;28;20040;-71
2022/03/18 05:32:49;;;;;;;41.03;15.25;;;;;;;0.95;52.67;101376.41;8426671;28;20052;-68
2022/03/18 05:36:50;;;;;;;38.13;15.43;;;;;;;0.91;52.63;101375.13;8426402;28;20052;-67
2022/03/18 05:40:52;;;;;;;49.83;16.65;;;;;;;0.91;52.45;101383.09;8467207;27;20093;-67
2022/03/18 05:44:53;;;;;;;39.33;16.27;;;;;;;0.84;52.70;101384.91;8458997;28;20331;-67
2022/03/18 05:48:54;;;;;;;47.42;15.90;;;;;;;0.92;52.14;101390.06;8475118;27;20109;-67
2022/03/18 05:52:55;;;;;;;46.92;17.20;;;;;;;0.83;52.30;101400.03;8460279;28;20139;-66
2022/03/18 05:56:57;;;;;;;42.47;16.55;;;;;;;0.85;51.99;101407.78;8460600;28;20437;-67
2022/03/18 06:00:58;;;;;;;47.22;17.00;;;;;;;0.91;52.09;101411.53;8459970;28;20059;-67
2022/03/18 06:05:01;;;;;;;43.13;16.42;;;;;;;0.88;52.36;101418.09;8474999;28;20059;-67
2022/03/18 06:13:21;;;;;;;39.60;15.10;;;;;;;0.84;52.36;101422.13;8464139;28;20090;-67
2022/03/18 06:17:23;;;;;;;37.90;15.80;;;;;;;0.85;52.39;101419.25;8466160;28;20063;-67
2022/03/18 06:21:24;;;;;;;48.40;16.27;;;;;;;0.86;52.54;101430.72;8466275;28;20071;-67
2022/03/18 06:25:25;;;;;;;53.00;17.83;;;;;;;0.87;52.27;101435.03;8463761;28;20087;-67
2022/03/18 06:29:30;;;;;;;41.42;16.88;;;;;;;0.80;52.56;101452.75;8446894;28;20052;-66
2022/03/18 06:33:51;;;;;;;42.05;17.40;;;;;;;0.81;52.29;101457.06;8465904;28;20044;-67
2022/03/18 06:37:52;;;;;;;45.83;17.20;;;;;;;0.84;52.20;101459.38;8427624;28;20139;-67
2022/03/18 06:41:54;;;;;;;47.85;16.83;;;;;;;0.83;52.62;101457.72;8393784;28;20056;-67
2022/03/18 06:45:55;;;;;;;46.20;17.40;;;;;;;0.87;52.48;101472.28;8427674;28;20059;-68
2022/03/18 06:49:56;;;;;;;38.97;16.40;;;;;;;0.94;52.17;101475.84;8427505;28;20127;-66
2022/03/18 06:53:58;;;;;;;36.45;16.13;;;;;;;1.02;52.24;101475.72;8427058;28;20099;-67
2022/03/18 06:57:59;;;;;;;47.25;18.65;;;;;;;1.14;52.32;101484.88;8405628;28;20048;-68
2022/03/18 07:02:00;;;;;;;46.13;17.83;;;;;;;1.28;51.83;101483.97;8392930;28;20044;-68
2022/03/18 07:06:02;;;;;;;42.28;15.65;;;;;;;1.48;51.67;101488.69;8376646;28;20090;-68
2022/03/18 07:10:03;;;;;;;43.90;16.70;;;;;;;1.68;50.59;101495.00;8393358;28;20048;-67
2022/03/18 07:14:04;;;;;;;40.42;16.02;;;;;;;1.95;50.47;101509.34;8407658;28;20089;-68
2022/03/18 07:18:06;;;;;;;41.30;15.20;;;;;;;2.20;49.87;101515.06;8431035;28;20051;-69
2022/03/18 07:22:07;;;;;;;56.72;20.98;;;;;;;2.43;48.97;101520.94;8428327;28;20508;-68
2022/03/18 07:26:08;;;;;;;38.45;16.45;;;;;;;2.61;49.04;101518.56;8430351;28;20105;-67
2022/03/18 07:30:09;;;;;;;41.50;16.38;;;;;;;2.88;48.42;101525.69;8430748;28;20385;-67
2022/03/18 07:34:10;;;;;;;41.58;15.75;;;;;;;3.16;47.50;101538.09;8430147;28;20047;-66
2022/03/18 07:38:11;;;;;;;36.15;15.43;;;;;;;3.42;46.92;101538.16;8430020;28;20064;-67
2022/03/18 07:42:13;;;;;;;36.63;15.95;;;;;;;3.64;46.54;101546.84;8449609;28;20411;-67
2022/03/18 07:46:14;;;;;;;48.60;17.15;;;;;;;3.88;46.35;101548.06;8464098;28;20051;-68
2022/03/18 07:50:20;;;;;;;35.22;16.05;;;;;;;4.09;45.89;101550.53;8463375;28;20414;-66
2022/03/18 07:54:21;;;;;;;39.22;15.75;;;;;;;3.98;45.59;101554.66;8462458;28;20051;-68
2022/03/18 07:58:23;;;;;;;45.60;16.27;;;;;;;4.07;45.83;101574.78;8403778;28;20071;-67
2022/03/18 08:02:24;;;;;;;50.65;17.25;;;;;;;4.21;45.00;101570.28;8429111;28;20135;-67
2022/03/18 08:06:25;;;;;;;44.38;18.42;;;;;;;4.19;44.97;101572.34;8477499;27;20469;-67
2022/03/18 08:10:26;;;;;;;42.53;18.17;;;;;;;4.21;44.99;101559.59;8458183;28;20059;-67
2022/03/18 08:14:29;;;;;;;40.08;16.77;;;;;;;4.17;44.56;101574.41;8476797;27;20063;-67
2022/03/18 08:18:30;;;;;;;47.10;18.65;;;;;;;4.21;44.62;101575.63;8457590;28;20055;-67
2022/03/18 08:22:31;;;;;;;41.05;18.48;;;;;;;4.13;44.71;101578.50;8392982;28;20044;-67
2022/03/18 08:26:36;;;;;;;59.22;21.63;;;;;;;4.14;44.86;101585.50;8457528;28;20078;-67
2022/03/18 08:30:38;;;;;;;38.38;17.02;;;;;;;4.28;44.87;101597.03;8457525;28;20075;-67
2022/03/18 08:34:39;;;;;;;40.60;17.88;;;;;;;4.43;44.50;101600.31;8456573;28;20070;-67
2022/03/18 08:38:40;;;;;;;42.67;18.58;;;;;;;4.54;43.99;101592.47;8440261;28;20046;-68
2022/03/18 08:42:41;;;;;;;46.17;17.58;;;;;;;4.74;44.20;101591.59;8456904;28;20459;-67
2022/03/18 08:46:42;;;;;;;44.70;18.40;;;;;;;4.90;44.23;101601.84;8389589;28;20044;-66
2022/03/18 08:50:43;;;;;;;43.30;17.95;;;;;;;4.95;44.08;101610.91;8460855;28;20509;-67
2022/03/18 08:54:45;;;;;;;50.08;19.63;;;;;;;5.12;43.94;101605.91;8460355;28;20051;-67
2022/03/18 08:58:45;;;;;;;41.92;18.95;;;;;;;5.16;43.51;101612.47;8452998;28;20074;-67
2022/03/18 09:02:48;;;;;;;38.55;16.75;;;;;;;5.28;43.31;101610.78;8460557;28;20051;-67
2022/03/18 09:06:49;;;;;;;40.67;17.17;;;;;;;5.43;43.57;101619.38;8460485;28;20039;-67
2022/03/18 09:10:50;;;;;;;39.33;18.50;;;;;;;5.58;43.13;101620.94;8460118;28;20055;-68
2022/03/18 09:14:52;;;;;;;38.75;17.33;;;;;;;5.77;42.02;101614.63;8460687;28;20483;-67
2022/03/18 09:18:53;;;;;;;44.88;18.67;;;;;;;5.91;42.27;101632.31;8460136;28;20058;-67
2022/03/18 09:22:54;;;;;;;40.35;17.70;;;;;;;5.99;42.98;101629.38;8459938;28;20071;-68
2022/03/18 09:26:56;;;;;;;36.35;17.85;;;;;;;6.22;42.50;101643.03;8493402;27;20538;-68
2022/03/18 09:30:57;;;;;;;43.30;18.63;;;;;;;6.30;41.84;101648.13;8460258;28;20037;-68
2022/03/18 09:34:59;;;;;;;44.88;18.63;;;;;;;6.33;41.67;101642.31;8460536;28;20050;-68
2022/03/18 09:39:00;;;;;;;41.38;19.27;;;;;;;6.50;41.91;101636.41;8460093;28;20059;-67
2022/03/18 09:43:04;;;;;;;42.53;19.00;;;;;;;6.56;42.02;101630.94;8437558;28;20050;-67
2022/03/18 09:47:09;;;;;;;39.25;17.23;;;;;;;6.55;41.19;101644.63;8463757;28;20043;-69
2022/03/18 09:51:10;;;;;;;33.63;16.55;;;;;;;6.57;40.36;101643.34;8419819;28;20055;-68
2022/03/18 09:55:11;;;;;;;38.50;17.15;;;;;;;6.84;39.64;101641.22;8446821;27;20048;-68
2022/03/18 09:59:13;;;;;;;41.40;16.13;;;;;;;7.14;39.23;101642.13;8489999;27;20047;-67
2022/03/18 10:03:21;;;;;;;35.88;16.52;;;;;;;7.37;38.84;101654.06;8464704;27;20051;-67
2022/03/18 10:07:24;;;;;;;38.97;17.05;;;;;;;7.37;38.33;101659.44;8441969;28;20039;-67
2022/03/18 10:11:27;;;;;;;37.28;16.95;;;;;;;7.39;37.99;101668.13;8454302;28;20059;-69
2022/03/18 10:15:30;;;;;;;37.92;16.83;;;;;;;7.47;37.93;101678.53;8434350;27;20071;-68
2022/03/18 10:19:31;;;;;;;38.55;16.77;;;;;;;7.39;37.61;101678.88;8451472;28;20071;-67
2022/03/18 10:23:32;;;;;;;36.22;16.73;;;;;;;7.44;37.28;101677.16;8465406;27;20556;-67
2022/03/18 10:27:33;;;;;;;37.92;16.98;;;;;;;7.50;36.94;101686.19;8463425;28;20064;-66
2022/03/18 10:31:34;;;;;;;40.78;16.40;;;;;;;7.46;37.11;101679.59;8464477;28;20259;-67
2022/03/18 10:40:00;;;;;;;34.80;15.05;;;;;;;7.64;36.04;101682.25;8493572;27;20393;-68
2022/03/18 10:44:08;;;;;;;32.58;14.68;;;;;;;7.81;35.28;101688.66;8465219;28;20109;-67
2022/03/18 10:48:14;;;;;;;37.70;16.40;;;;;;;7.87;35.53;101687.75;8464681;28;20044;-69
2022/03/18 10:52:15;;;;;;;31.92;14.45;;;;;;;8.15;35.96;101678.22;8464848;28;20551;-67
2022/03/18 10:56:16;;;;;;;30.95;13.80;;;;;;;8.26;33.74;101674.75;8464431;28;20288;-67
2022/03/18 11:00:18;;;;;;;29.25;13.00;;;;;;;8.38;33.41;101689.09;8459534;27;20416;-68
2022/03/18 11:04:20;;;;;;;28.88;11.48;;;;;;;8.52;33.12;101682.44;8448807;28;20411;-68
2022/03/18 11:08:23;;;;;;;26.15;11.45;;;;;;;8.63;32.29;101692.41;8464640;28;20043;-67
2022/03/18 11:12:24;;;;;;;28.50;12.27;;;;;;;8.95;32.44;101689.38;8463586;28;20487;-67
2022/03/18 11:16:30;;;;;;;27.10;13.52;;;;;;;9.12;32.28;101680.34;8463737;28;20048;-67
2022/03/18 11:20:42;;;;;;;26.92;13.75;;;;;;;9.19;32.25;101680.22;8457957;27;20066;-67
2022/03/18 11:24:44;;;;;;;34.28;13.50;;;;;;;9.11;32.12;101672.47;8430196;28;20048;-67
2022/03/18 11:28:45;;;;;;;23.67;11.70;;;;;;;9.22;31.27;101680.56;8443481;28;20050;-67
2022/03/18 11:33:11;;;;;;;27.15;11.68;;;;;;;9.23;30.79;101681.38;8444319;28;20054;-66
2022/03/18 11:37:12;;;;;;;23.65;11.32;;;;;;;9.30;30.67;101698.25;8462726;28;20040;-67
2022/03/18 11:41:14;;;;;;;28.23;10.73;;;;;;;9.40;29.82;101698.47;8459394;28;20543;-68
2022/03/18 11:45:33;;;;;;;25.75;11.95;;;;;;;9.59;30.18;101701.81;8462325;28;20051;-67
2022/03/18 11:49:33;;;;;;;31.40;13.17;;;;;;;9.83;30.37;101702.56;8456107;28;20516;-68
2022/03/18 11:53:47;;;;;;;32.42;12.07;;;;;;;9.92;30.23;101690.31;8455614;28;20564;-67
2022/03/18 11:57:48;;;;;;;27.17;12.07;;;;;;;10.12;29.60;101696.06;8457144;28;20056;-67
2022/03/18 12:02:09;;;;;;;24.23;11.93;;;;;;;10.24;29.75;101694.19;8462775;28;20044;-68
2022/03/18 12:06:10;;;;;;;23.98;12.30;;;;;;;10.47;29.65;101699.41;8461649;28;20055;-68
2022/03/18 12:10:15;;;;;;;33.97;13.65;;;;;;;10.63;29.57;101695.06;8446314;27;20048;-67
2022/03/18 12:14:16;;;;;;;31.95;12.50;;;;;;;10.76;29.82;101691.25;8447412;28;20482;-67
2022/03/18 12:18:27;;;;;;;30.70;13.50;;;;;;;10.92;29.45;101693.09;8462894;28;20063;-68
2022/03/18 12:22:29;;;;;;;27.73;13.55;;;;;;;10.97;28.80;101693.19;8462256;28;20077;-68
2022/03/18 12:26:30;;;;;;;26.70;11.35;;;;;;;10.64;29.04;101687.78;8459951;28;20495;-66
2022/03/18 12:30:31;;;;;;;25.67;12.00;;;;;;;10.75;28.59;101695.00;8442747;28;20077;-66
2022/03/18 12:34:34;;;;;;;25.83;11.32;;;;;;;10.83;28.41;101686.50;8461760;28;20505;-67
2022/03/18 12:38:35;;;;;;;23.73;11.13;;;;;;;11.15;28.88;101690.19;8461708;27;20138;-67
2022/03/18 12:42:51;;;;;;;25.70;11.75;;;;;;;11.29;28.50;101680.66;8461610;28;20051;-67
2022/03/18 12:46:53;;;;;;;23.10;11.30;;;;;;;11.20;27.75;101682.16;8461535;28;20100;-66
2022/03/18 12:50:56;;;;;;;24.83;12.45;;;;;;;11.28;27.41;101679.00;8479932;27;20040;-66
2022/03/18 12:55:08;;;;;;;22.33;11.38;;;;;;;11.39;27.30;101669.94;8427538;28;20393;-67
2022/03/18 12:59:15;;;;;;;29.50;12.32;;;;;;;11.50;27.08;101680.88;8427727;28;20052;-66
2022/03/18 13:03:18;;;;;;;24.70;12.00;;;;;;;11.55;27.25;101689.06;8426046;28;20052;-66
2022/03/18 13:07:19;;;;;;;22.40;10.73;;;;;;;11.48;26.93;101683.03;8430324;28;20048;-67
2022/03/18 13:11:20;;;;;;;20.20;10.95;;;;;;;11.42;26.87;101690.25;8462842;27;20398;-68
2022/03/18 13:15:22;;;;;;;30.20;10.77;;;;;;;11.53;26.97;101691.19;8473562;27;20131;-67
2022/03/18 13:19:39;;;;;;;20.42;10.70;;;;;;;11.70;27.07;101697.38;8442461;28;20526;-69
2022/03/18 13:23:42;;;;;;;21.50;9.63;;;;;;;11.77;25.72;101698.03;8468744;27;20119;-68
2022/03/18 13:27:43;;;;;;;17.08;8.70;;;;;;;12.36;25.52;101700.81;8458999;27;20047;-67
2022/03/18 13:36:03;;;;;;;;;;;;;;;13.67;23.29;101704.38;8475001;27;20043;-68
2022/03/18 13:40:14;;;;;;;14.77;7.50;;;;;;;13.99;22.37;101697.94;8486005;27;20328;-67
2022/03/18 13:44:15;;;;;;;16.13;7.82;;;;;;;14.38;21.99;101701.84;8440012;28;20051;-68
2022/03/18 13:48:29;;;;;;;13.02;7.22;;;;;;;14.86;21.90;101703.16;8426277;28;20048;-68
2022/03/18 13:52:39;;;;;;;14.50;7.88;;;;;;;15.12;21.30;101706.69;8426405;28;20055;-68
2022/03/18 13:56:42;;;;;;;12.40;7.28;;;;;;;15.80;20.36;101707.81;8447004;28;20054;-67
2022/03/18 14:00:43;;;;;;;17.75;8.75;;;;;;;15.22;20.28;101706.66;8440552;28;20056;-67
2022/03/18 14:04:46;;;;;;;19.02;10.18;;;;;;;15.44;20.23;101698.13;8459784;28;20044;-68
2022/03/18 14:08:48;;;;;;;15.30;8.00;;;;;;;16.08;19.93;101703.53;8458988;28;20047;-68
2022/03/18 14:13:06;;;;;;;15.75;8.18;;;;;;;16.31;19.04;101697.41;8452725;28;20051;-67
2022/03/18 14:17:22;;;;;;;16.27;8.50;;;;;;;16.16;19.59;101700.22;8458141;28;20075;-68
2022/03/18 14:21:23;;;;;;;18.63;8.88;;;;;;;16.24;19.79;101704.25;8458951;28;20067;-69
2022/03/18 14:25:29;;;;;;;17.02;8.60;;;;;;;16.21;19.73;101702.91;8454816;28;20149;-69
2022/03/18 14:29:51;;;;;;;17.60;8.38;;;;;;;15.68;19.91;101709.22;8438855;28;20080;-68
2022/03/18 14:33:52;;;;;;;16.45;8.25;;;;;;;15.80;19.85;101715.16;8453474;28;20047;-68
2022/03/18 14:37:53;;;;;;;17.17;8.13;;;;;;;16.39;19.68;101704.94;8444424;28;20132;-69
2022/03/18 14:41:54;;;;;;;19.30;8.15;;;;;;;16.74;19.89;101716.72;8460654;28;20052;-69
2022/03/18 14:45:55;;;;;;;18.05;8.75;;;;;;;16.74;19.42;101705.81;8424409;28;20177;-70
2022/03/18 14:49:57;;;;;;;18.05;8.80;;;;;;;16.81;19.23;101711.75;8458170;28;20056;-68
2022/03/18 14:53:57;;;;;;;15.35;8.80;;;;;;;17.08;19.61;101712.00;8460139;28;20071;-68
2022/03/18 14:58:01;;;;;;;16.85;8.02;;;;;;;17.09;19.37;101708.16;8432726;28;20052;-67
2022/03/18 15:02:02;;;;;;;17.65;8.90;;;;;;;17.17;19.20;101715.75;8427214;28;20575;-68
2022/03/18 15:06:03;;;;;;;15.07;8.52;;;;;;;16.59;19.61;101708.66;8429067;28;20527;-67
2022/03/18 15:10:06;;;;;;;18.83;9.20;;;;;;;16.31;20.16;101711.03;8429624;27;20056;-68
2022/03/18 15:14:07;;;;;;;23.42;10.45;;;;;;;15.99;19.96;101713.41;8429770;28;20506;-68
2022/03/18 15:18:08;;;;;;;20.25;9.95;;;;;;;15.44;20.79;101726.16;8429157;28;20044;-69
2022/03/18 15:22:13;;;;;;;18.45;9.88;;;;;;;14.78;21.03;101718.16;8445137;28;20040;-68
2022/03/18 15:26:15;;;;;;;17.20;9.02;;;;;;;14.33;21.23;101721.63;8430006;28;20155;-69
2022/03/18 15:30:16;;;;;;;17.92;9.20;;;;;;;14.02;21.73;101724.56;8438865;27;20454;-69
2022/03/18 15:34:17;;;;;;;18.92;9.43;;;;;;;13.65;22.21;101736.38;8492518;27;20054;-68
2022/03/18 15:38:18;;;;;;;17.70;8.55;;;;;;;13.04;22.74;101736.03;8469672;27;20088;-71
2022/03/18 15:42:20;;;;;;;25.58;11.57;;;;;;;12.64;23.28;101741.13;8461316;28;20051;-70
2022/03/18 15:46:22;;;;;;;21.58;9.43;;;;;;;12.26;23.87;101734.88;8463602;28;20100;-68
2022/03/18 15:50:26;;;;;;;18.92;9.20;;;;;;;11.81;23.90;101747.88;8462995;28;20048;-67
2022/03/18 15:54:28;;;;;;;15.65;8.85;;;;;;;11.46;24.27;101744.72;8463108;28;20048;-68
2022/03/18 15:58:30;;;;;;;19.13;9.45;;;;;;;11.13;24.86;101741.00;8443752;28;20040;-73
2022/03/18 16:02:31;;;;;;;22.25;10.75;;;;;;;11.08;25.36;101738.22;8463092;28;20043;-67
2022/03/18 16:06:32;;;;;;;23.45;11.60;;;;;;;10.77;25.64;101741.53;8462447;28;20051;-67
2022/03/18 16:10:33;;;;;;;26.55;12.38;;;;;;;10.75;26.23;101738.25;8454760;27;20055;-68
2022/03/18 16:14:35;;;;;;;20.15;9.85;;;;;;;10.48;26.28;101733.47;8456458;27;20047;-68
2022/03/18 16:18:37;;;;;;;28.08;10.73;;;;;;;10.35;26.51;101739.22;8436822;28;20047;-69
2022/03/18 16:22:38;;;;;;;25.70;11.07;;;;;;;10.11;27.15;101743.03;8391717;28;20506;-68
2022/03/18 16:31:18;;;;;;;19.42;9.90;;;;;;;9.39;27.86;101744.53;8355700;28;20049;-68
2022/03/18 16:35:20;;;;;;;20.10;10.18;;;;;;;9.21;28.29;101758.97;8339180;28;20433;-69
2022/03/18 16:39:21;;;;;;;20.77;9.40;;;;;;;8.92;29.27;101774.22;8357475;28;20527;-69
2022/03/18 16:43:25;;;;;;;14.77;8.32;;;;;;;8.58;30.26;101770.41;8354220;28;20092;-69
2022/03/18 16:51:46;;;;;;;21.48;9.40;;;;;;;7.97;31.98;101766.06;8339411;28;20053;-69
2022/03/18 16:55:47;;;;;;;19.30;9.70;;;;;;;7.60;32.98;101769.84;8354257;28;20060;-70
2022/03/18 16:59:48;;;;;;;18.52;9.38;;;;;;;7.24;33.96;101791.31;8360520;28;20190;-70
2022/03/18 17:03:50;;;;;;;18.85;9.88;;;;;;;7.02;34.69;101791.72;8357356;28;20082;-70
2022/03/18 17:07:51;;;;;;;25.35;12.23;;;;;;;6.87;35.56;101799.28;8425832;28;20122;-68
2022/03/18 17:11:52;;;;;;;25.45;12.80;;;;;;;6.56;35.88;101802.78;8427134;28;20048;-71
2022/03/18 17:15:53;;;;;;;47.72;19.05;;;;;;;6.31;36.34;101809.97;8442682;28;20135;-71
2022/03/18 17:19:55;;;;;;;64.00;25.40;;;;;;;6.05;37.09;101810.09;8401653;28;20052;-69
2022/03/18 17:23:58;;;;;;;71.93;25.83;;;;;;;5.92;37.98;101824.41;8440650;28;20111;-68
2022/03/18 17:27:59;;;;;;;63.17;22.83;;;;;;;5.60;38.52;101827.97;8504066;27;20483;-69
2022/03/18 17:32:00;;;;;;;75.57;26.33;;;;;;;5.41;38.92;101835.00;8454453;28;20070;-69
2022/03/18 17:36:03;;;;;;;50.92;18.63;;;;;;;5.23;39.39;101843.69;8458191;28;20048;-68
2022/03/18 17:40:07;;;;;;;53.80;19.63;;;;;;;5.07;39.85;101844.09;8451519;28;20078;-69
2022/03/18 17:44:08;;;;;;;47.28;19.02;;;;;;;4.84;40.73;101838.31;8455618;28;20127;-69
2022/03/18 17:48:11;;;;;;;71.85;26.90;;;;;;;4.74;41.24;101843.25;8449679;28;20434;-69
2022/03/18 17:52:12;;;;;;;67.20;25.70;;;;;;;4.55;41.65;101845.66;8444440;28;20043;-68
2022/03/18 17:56:14;;;;;;;59.58;23.67;;;;;;;4.31;42.26;101848.91;8459905;28;20055;-70
2022/03/18 18:00:15;;;;;;;42.10;15.98;;;;;;;4.16;42.55;101850.91;8443949;28;20443;-69
2022/03/18 18:04:17;;;;;;;42.53;15.45;;;;;;;4.06;42.94;101861.16;8475173;27;20048;-68
2022/03/18 18:08:18;;;;;;;35.85;14.48;;;;;;;3.96;43.16;101866.03;8465748;27;20047;-69
2022/03/18 18:12:20;;;;;;;31.20;13.05;;;;;;;3.71;43.78;101874.53;8496395;27;20070;-70
2022/03/18 18:16:21;;;;;;;42.35;13.27;;;;;;;3.54;44.18;101877.72;8495346;27;20070;-69
2022/03/18 18:24:41;;;;;;;93.22;33.30;;;;;;;3.17;45.29;101876.19;8465247;27;20478;-69
2022/03/18 18:28:44;;;;;;;192.00;61.28;;;;;;;3.01;45.49;101877.28;8480374;27;20043;-70
2022/03/18 18:32:45;;;;;;;194.60;59.65;;;;;;;2.86;46.04;101874.66;8480229;27;20105;-68
2022/03/18 18:36:46;;;;;;;195.25;56.60;;;;;;;2.71;45.95;101875.75;8485268;27;20056;-68
2022/03/18 18:40:48;;;;;;;207.10;61.90;;;;;;;2.59;46.06;101872.78;8496072;27;20487;-68
2022/03/18 18:44:49;;;;;;;177.00;50.22;;;;;;;2.47;46.81;101868.94;8412564;28;20044;-68
2022/03/18 18:48:51;;;;;;;87.72;28.73;;;;;;;2.37;47.04;101860.41;8458818;28;20132;-68
2022/03/18 18:52:53;;;;;;;84.57;26.65;;;;;;;2.23;47.58;101861.25;8464817;28;20494;-69
2022/03/18 18:56:54;;;;;;;50.35;17.67;;;;;;;2.09;47.67;101866.44;8471683;27;20050;-68
2022/03/18 19:00:56;;;;;;;60.33;18.77;;;;;;;2.03;47.87;101872.50;8464396;28;20131;-68
2022/03/18 19:04:57;;;;;;;57.65;20.73;;;;;;;1.97;48.03;101862.59;8455712;27;20051;-70
2022/03/18 19:08:59;;;;;;;51.05;20.70;;;;;;;1.85;48.19;101869.38;8490971;27;20592;-68
2022/03/18 19:13:02;;;;;;;54.08;21.45;;;;;;;1.71;48.43;101872.88;8464329;27;20575;-68